sensor_id;sensor_type;location;lat;lon;timestamp;pressure;altitude;pressure_sealevel;temperature;humidity
51123;BME280;37162;41.724;13.346;2023-02-14T00:01:49;98340.06;;;15.49;53.09
51123;BME280;37162;41.724;13.346;2023-02-14T00:04:16;98355.88;;;15.59;53.18
51123;BME280;37162;41.724;13.346;2023-02-14T00:06:42;98363.06;;;15.58;53.19
51123;BME280;37162;41.724;13.346;2023-02-14T00:09:13;98350.72;;;15.57;53.01
51123;BME280;37162;41.724;13.346;2023-02-14T00:11:39;98348.66;;;15.59;53.05
51123;BME280;37162;41.724;13.346;2023-02-14T00:14:05;98347.84;;;15.59;53.09
51123;BME280;37162;41.724;13.346;2023-02-14T00:16:49;98338.13;;;15.58;52.98
51123;BME280;37162;41.724;13.346;2023-02-14T00:19:17;98336.44;;;15.57;53.07
51123;BME280;37162;41.724;13.346;2023-02-14T00:21:43;98337.31;;;15.57;52.98
51123;BME280;37162;41.724;13.346;2023-02-14T00:24:13;98340.97;;;15.56;52.84
51123;BME280;37162;41.724;13.346;2023-02-14T00:26:40;98326.75;;;15.56;53.18
51123;BME280;37162;41.724;13.346;2023-02-14T00:29:10;98332.13;;;15.56;53.31
51123;BME280;37162;41.724;13.346;2023-02-14T00:31:37;98326.59;;;15.57;53.66
51123;BME280;37162;41.724;13.346;2023-02-14T00:34:03;98331.97;;;15.57;53.67
51123;BME280;37162;41.724;13.346;2023-02-14T00:36:29;98325.75;;;15.57;53.59
51123;BME280;37162;41.724;13.346;2023-02-14T00:38:54;98318.72;;;15.56;53.17
51123;BME280;37162;41.724;13.346;2023-02-14T00:41:20;98322.22;;;15.56;53.27
51123;BME280;37162;41.724;13.346;2023-02-14T00:43:47;98308.09;;;15.48;52.90
51123;BME280;37162;41.724;13.346;2023-02-14T00:46:13;98318.47;;;15.51;52.64
51123;BME280;37162;41.724;13.346;2023-02-14T00:48:39;98319.56;;;15.56;52.57
51123;BME280;37162;41.724;13.346;2023-02-14T00:51:05;98322.44;;;15.55;52.55
51123;BME280;37162;41.724;13.346;2023-02-14T00:53:30;98313.94;;;15.51;52.73
51123;BME280;37162;41.724;13.346;2023-02-14T00:55:56;98323.63;;;15.52;52.70
51123;BME280;37162;41.724;13.346;2023-02-14T00:58:21;98314.75;;;15.52;52.78
51123;BME280;37162;41.724;13.346;2023-02-14T01:00:46;98322.78;;;15.52;52.85
51123;BME280;37162;41.724;13.346;2023-02-14T01:03:12;98314.94;;;15.50;52.72
51123;BME280;37162;41.724;13.346;2023-02-14T01:05:37;98322.97;;;15.50;52.68
51123;BME280;37162;41.724;13.346;2023-02-14T01:08:03;98323.19;;;15.49;52.72
51123;BME280;37162;41.724;13.346;2023-02-14T01:10:29;98321.69;;;15.46;52.70
51123;BME280;37162;41.724;13.346;2023-02-14T01:12:54;98321.06;;;15.44;52.92
51123;BME280;37162;41.724;13.346;2023-02-14T01:15:19;98319.84;;;15.47;52.92
51123;BME280;37162;41.724;13.346;2023-02-14T01:17:45;98319.84;;;15.47;52.93
51123;BME280;37162;41.724;13.346;2023-02-14T01:20:10;98313.38;;;15.41;52.94
51123;BME280;37162;41.724;13.346;2023-02-14T01:22:37;98315.88;;;15.43;52.92
51123;BME280;37162;41.724;13.346;2023-02-14T01:25:03;98309.69;;;15.42;53.03
51123;BME280;37162;41.724;13.346;2023-02-14T01:27:29;98325.19;;;15.47;53.07
51123;BME280;37162;41.724;13.346;2023-02-14T01:29:55;98315.50;;;15.46;52.89
51123;BME280;37162;41.724;13.346;2023-02-14T01:32:20;98317.16;;;15.47;52.75
51123;BME280;37162;41.724;13.346;2023-02-14T01:34:46;98305.41;;;15.48;52.89
51123;BME280;37162;41.724;13.346;2023-02-14T01:37:12;98297.38;;;15.48;53.02
51123;BME280;37162;41.724;13.346;2023-02-14T01:39:38;98301.91;;;15.47;52.94
51123;BME280;37162;41.724;13.346;2023-02-14T01:42:03;98299.25;;;15.47;53.35
51123;BME280;37162;41.724;13.346;2023-02-14T01:47:03;98297.22;;;15.49;53.01
51123;BME280;37162;41.724;13.346;2023-02-14T01:49:46;98294.06;;;15.46;52.89
51123;BME280;37162;41.724;13.346;2023-02-14T01:52:14;98293.06;;;15.47;52.59
51123;BME280;37162;41.724;13.346;2023-02-14T01:57:58;98274.03;;;15.42;52.30
51123;BME280;37162;41.724;13.346;2023-02-14T02:00:26;98276.16;;;15.46;52.44
51123;BME280;37162;41.724;13.346;2023-02-14T02:03:11;98271.63;;;15.47;52.72
51123;BME280;37162;41.724;13.346;2023-02-14T02:05:41;98275.13;;;15.47;52.56
51123;BME280;37162;41.724;13.346;2023-02-14T02:08:09;98278.84;;;15.46;52.74
51123;BME280;37162;41.724;13.346;2023-02-14T02:10:35;98268.94;;;15.47;52.66
51123;BME280;37162;41.724;13.346;2023-02-14T02:13:04;98267.09;;;15.47;52.79
51123;BME280;37162;41.724;13.346;2023-02-14T02:15:39;98279.50;;;15.48;52.59
51123;BME280;37162;41.724;13.346;2023-02-14T02:23:55;98265.44;;;15.46;52.66
51123;BME280;37162;41.724;13.346;2023-02-14T02:26:51;98262.97;;;15.45;52.71
51123;BME280;37162;41.724;13.346;2023-02-14T02:29:42;98252.25;;;15.45;52.58
51123;BME280;37162;41.724;13.346;2023-02-14T02:52:09;98245.41;;;15.42;52.67
51123;BME280;37162;41.724;13.346;2023-02-14T02:55:01;98242.72;;;15.42;52.62
51123;BME280;37162;41.724;13.346;2023-02-14T02:57:31;98244.56;;;15.42;52.52
51123;BME280;37162;41.724;13.346;2023-02-14T03:00:01;98241.06;;;15.41;52.50
51123;BME280;37162;41.724;13.346;2023-02-14T03:02:31;98244.56;;;15.42;52.44
51123;BME280;37162;41.724;13.346;2023-02-14T03:05:18;98241.06;;;15.41;52.51
51123;BME280;37162;41.724;13.346;2023-02-14T03:07:44;98239.41;;;15.40;52.26
51123;BME280;37162;41.724;13.346;2023-02-14T03:15:52;98245.59;;;15.41;52.33
51123;BME280;37162;41.724;13.346;2023-02-14T03:18:43;98252.81;;;15.40;52.28
51123;BME280;37162;41.724;13.346;2023-02-14T03:21:27;98244.78;;;15.40;52.48
51123;BME280;37162;41.724;13.346;2023-02-14T03:46:35;98249.66;;;15.37;52.47
51123;BME280;37162;41.724;13.346;2023-02-14T03:49:00;98255.03;;;15.37;52.51
51123;BME280;37162;41.724;13.346;2023-02-14T03:51:30;98251.31;;;15.38;52.62
51123;BME280;37162;41.724;13.346;2023-02-14T03:53:59;98260.19;;;15.38;52.80
51123;BME280;37162;41.724;13.346;2023-02-14T03:56:31;98258.34;;;15.39;52.88
51123;BME280;37162;41.724;13.346;2023-02-14T03:59:05;98242.00;;;15.33;53.04
51123;BME280;37162;41.724;13.346;2023-02-14T04:01:38;98244.97;;;15.39;52.62
51123;BME280;37162;41.724;13.346;2023-02-14T04:04:06;98240.44;;;15.39;52.40
51123;BME280;37162;41.724;13.346;2023-02-14T04:06:33;98247.66;;;15.39;52.54
51123;BME280;37162;41.724;13.346;2023-02-14T04:08:59;98236.94;;;15.39;52.53
51123;BME280;37162;41.724;13.346;2023-02-14T04:11:24;98235.91;;;15.40;52.44
51123;BME280;37162;41.724;13.346;2023-02-14T04:13:50;98236.94;;;15.39;52.45
51123;BME280;37162;41.724;13.346;2023-02-14T04:16:15;98234.25;;;15.39;52.29
51123;BME280;37162;41.724;13.346;2023-02-14T04:18:40;98236.28;;;15.37;52.47
51123;BME280;37162;41.724;13.346;2023-02-14T04:21:25;98238.13;;;15.36;52.40
51123;BME280;37162;41.724;13.346;2023-02-14T04:23:50;98244.31;;;15.37;52.23
51123;BME280;37162;41.724;13.346;2023-02-14T04:26:16;98235.44;;;15.36;52.44
51123;BME280;37162;41.724;13.346;2023-02-14T04:28:41;98233.13;;;15.33;52.22
51123;BME280;37162;41.724;13.346;2023-02-14T04:31:06;98228.16;;;15.30;52.21
51123;BME280;37162;41.724;13.346;2023-02-14T04:33:34;98234.81;;;15.34;52.33
51123;BME280;37162;41.724;13.346;2023-02-14T04:36:00;98232.97;;;15.34;52.22
51123;BME280;37162;41.724;13.346;2023-02-14T04:38:26;98229.47;;;15.34;52.10
51123;BME280;37162;41.724;13.346;2023-02-14T04:40:51;98229.63;;;15.32;52.22
51123;BME280;37162;41.724;13.346;2023-02-14T04:43:18;98213.69;;;15.24;52.34
51123;BME280;37162;41.724;13.346;2023-02-14T04:45:43;98234.97;;;15.32;52.37
51123;BME280;37162;41.724;13.346;2023-02-14T04:48:09;98232.31;;;15.32;52.66
51123;BME280;37162;41.724;13.346;2023-02-14T04:50:34;98227.50;;;15.28;52.49
51123;BME280;37162;41.724;13.346;2023-02-14T04:53:00;98231.47;;;15.32;52.33
51123;BME280;37162;41.724;13.346;2023-02-14T04:55:25;98227.34;;;15.29;52.45
51123;BME280;37162;41.724;13.346;2023-02-14T04:57:51;98227.97;;;15.31;52.62
51123;BME280;37162;41.724;13.346;2023-02-14T05:00:17;98229.81;;;15.31;52.83
51123;BME280;37162;41.724;13.346;2023-02-14T05:02:43;98232.50;;;15.31;52.45
51123;BME280;37162;41.724;13.346;2023-02-14T05:05:08;98232.31;;;15.32;52.63
51123;BME280;37162;41.724;13.346;2023-02-14T05:07:34;98225.91;;;15.33;53.58
51123;BME280;37162;41.724;13.346;2023-02-14T05:09:59;98220.75;;;15.32;53.44
51123;BME280;37162;41.724;13.346;2023-02-14T05:12:25;98220.97;;;15.30;52.85
51123;BME280;37162;41.724;13.346;2023-02-14T05:14:50;98231.66;;;15.30;52.59
51123;BME280;37162;41.724;13.346;2023-02-14T05:17:16;98233.69;;;15.28;52.46
51123;BME280;37162;41.724;13.346;2023-02-14T05:19:41;98244.03;;;15.31;52.37
51123;BME280;37162;41.724;13.346;2023-02-14T05:22:06;98240.53;;;15.31;52.38
51123;BME280;37162;41.724;13.346;2023-02-14T05:24:32;98241.34;;;15.31;52.17
51123;BME280;37162;41.724;13.346;2023-02-14T05:26:57;98233.31;;;15.31;52.17
51123;BME280;37162;41.724;13.346;2023-02-14T05:29:23;98233.31;;;15.31;52.25
51123;BME280;37162;41.724;13.346;2023-02-14T05:31:48;98237.03;;;15.30;52.21
51123;BME280;37162;41.724;13.346;2023-02-14T05:34:14;98251.25;;;15.31;52.40
51123;BME280;37162;41.724;13.346;2023-02-14T05:36:39;98244.22;;;15.30;52.32
51123;BME280;37162;41.724;13.346;2023-02-14T05:39:04;98247.75;;;15.30;52.35
51123;BME280;37162;41.724;13.346;2023-02-14T05:41:30;98231.56;;;15.24;52.36
51123;BME280;37162;41.724;13.346;2023-02-14T05:43:55;98243.22;;;15.31;52.32
51123;BME280;37162;41.724;13.346;2023-02-14T05:46:21;98243.22;;;15.31;52.19
51123;BME280;37162;41.724;13.346;2023-02-14T05:48:46;98238.88;;;15.30;52.26
51123;BME280;37162;41.724;13.346;2023-02-14T05:51:12;98241.56;;;15.30;52.04
51123;BME280;37162;41.724;13.346;2023-02-14T05:53:37;98237.78;;;15.24;52.41
51123;BME280;37162;41.724;13.346;2023-02-14T05:56:03;98245.06;;;15.30;52.39
51123;BME280;37162;41.724;13.346;2023-02-14T05:58:29;98247.75;;;15.30;52.28
51123;BME280;37162;41.724;13.346;2023-02-14T06:00:56;98232.59;;;15.23;52.45
51123;BME280;37162;41.724;13.346;2023-02-14T06:03:21;98245.88;;;15.31;52.59
51123;BME280;37162;41.724;13.346;2023-02-14T06:05:47;98244.22;;;15.30;52.40
51123;BME280;37162;41.724;13.346;2023-02-14T06:08:12;98244.22;;;15.30;52.67
51123;BME280;37162;41.724;13.346;2023-02-14T06:10:38;98240.72;;;15.29;52.46
51123;BME280;37162;41.724;13.346;2023-02-14T06:13:03;98243.56;;;15.28;52.58
51123;BME280;37162;41.724;13.346;2023-02-14T06:15:33;98240.88;;;15.28;52.14
51123;BME280;37162;41.724;13.346;2023-02-14T06:18:00;98244.41;;;15.28;52.46
51123;BME280;37162;41.724;13.346;2023-02-14T06:20:25;98244.41;;;15.28;52.28
51123;BME280;37162;41.724;13.346;2023-02-14T06:22:51;98242.75;;;15.27;52.35
51123;BME280;37162;41.724;13.346;2023-02-14T06:25:17;98238.41;;;15.26;52.14
51123;BME280;37162;41.724;13.346;2023-02-14T06:27:42;98241.09;;;15.26;52.20
51123;BME280;37162;41.724;13.346;2023-02-14T06:30:09;98244.59;;;15.27;52.23
51123;BME280;37162;41.724;13.346;2023-02-14T06:32:35;98236.47;;;15.20;52.17
51123;BME280;37162;41.724;13.346;2023-02-14T06:35:00;98247.28;;;15.27;52.27
51123;BME280;37162;41.724;13.346;2023-02-14T06:37:27;98241.09;;;15.26;52.36
51123;BME280;37162;41.724;13.346;2023-02-14T06:39:53;98240.06;;;15.27;52.38
51123;BME280;37162;41.724;13.346;2023-02-14T06:42:18;98243.56;;;15.28;52.82
51123;BME280;37162;41.724;13.346;2023-02-14T06:44:44;98237.38;;;15.27;52.48
51123;BME280;37162;41.724;13.346;2023-02-14T06:47:09;98248.75;;;15.29;52.47
51123;BME280;37162;41.724;13.346;2023-02-14T06:49:35;98239.88;;;15.29;52.64
51123;BME280;37162;41.724;13.346;2023-02-14T06:52:02;98242.38;;;15.30;52.51
51123;BME280;37162;41.724;13.346;2023-02-14T06:54:28;98226.31;;;15.30;52.48
51123;BME280;37162;41.724;13.346;2023-02-14T06:56:53;98243.00;;;15.32;52.78
51123;BME280;37162;41.724;13.346;2023-02-14T06:59:18;98238.47;;;15.33;52.84
51123;BME280;37162;41.724;13.346;2023-02-14T07:01:44;98249.03;;;15.34;52.85
51123;BME280;37162;41.724;13.346;2023-02-14T07:04:10;98238.88;;;15.30;52.73
51123;BME280;37162;41.724;13.346;2023-02-14T07:06:36;98253.16;;;15.37;52.96
51123;BME280;37162;41.724;13.346;2023-02-14T07:09:02;98253.00;;;15.39;52.73
51123;BME280;37162;41.724;13.346;2023-02-14T07:11:28;98248.47;;;15.39;52.54
51123;BME280;37162;41.724;13.346;2023-02-14T07:13:53;98248.91;;;15.43;52.49
51123;BME280;37162;41.724;13.346;2023-02-14T07:16:19;98252.25;;;15.45;52.48
51123;BME280;37162;41.724;13.346;2023-02-14T07:18:44;98242.38;;;15.45;52.37
51123;BME280;37162;41.724;13.346;2023-02-14T07:21:10;98248.19;;;15.49;52.41
51123;BME280;37162;41.724;13.346;2023-02-14T07:23:35;98255.00;;;15.51;52.49
51123;BME280;37162;41.724;13.346;2023-02-14T07:26:01;98242.16;;;15.47;52.30
51123;BME280;37162;41.724;13.346;2023-02-14T07:28:26;98244.53;;;15.56;52.07
51123;BME280;37162;41.724;13.346;2023-02-14T07:30:52;98243.34;;;15.59;51.98
51123;BME280;37162;41.724;13.346;2023-02-14T07:33:17;98242.53;;;15.58;51.49
51123;BME280;37162;41.724;13.346;2023-02-14T07:35:43;98246.34;;;15.64;51.28
51123;BME280;37162;41.724;13.346;2023-02-14T07:38:08;98244.28;;;15.66;50.93
51123;BME280;37162;41.724;13.346;2023-02-14T07:40:34;98244.94;;;15.68;50.49
51123;BME280;37162;41.724;13.346;2023-02-14T07:42:59;98242.06;;;15.70;50.48
51123;BME280;37162;41.724;13.346;2023-02-14T07:45:25;98227.59;;;15.64;50.36
51123;BME280;37162;41.724;13.346;2023-02-14T07:47:52;98235.31;;;15.74;50.31
51123;BME280;37162;41.724;13.346;2023-02-14T07:50:19;98235.78;;;15.77;50.35
51123;BME280;37162;41.724;13.346;2023-02-14T07:52:45;98227.47;;;15.72;49.97
51123;BME280;37162;41.724;13.346;2023-02-14T07:55:10;98234.38;;;15.81;50.10
51123;BME280;37162;41.724;13.346;2023-02-14T07:57:36;98228.63;;;15.84;50.24
51123;BME280;37162;41.724;13.346;2023-02-14T08:00:03;98227.63;;;15.86;50.09
51123;BME280;37162;41.724;13.346;2023-02-14T08:02:29;98235.28;;;15.89;50.16
51123;BME280;37162;41.724;13.346;2023-02-14T08:04:54;98238.41;;;15.92;50.64
51123;BME280;37162;41.724;13.346;2023-02-14T08:07:20;98237.19;;;15.95;50.63
51123;BME280;37162;41.724;13.346;2023-02-14T08:09:45;98225.22;;;15.91;50.88
51123;BME280;37162;41.724;13.346;2023-02-14T08:12:10;98230.41;;;15.99;50.62
51123;BME280;37162;41.724;13.346;2023-02-14T08:14:54;98222.84;;;16.02;50.47
51123;BME280;37162;41.724;13.346;2023-02-14T08:17:40;98218.97;;;16.05;50.35
51123;BME280;37162;41.724;13.346;2023-02-14T08:20:06;98225.78;;;16.07;50.10
51123;BME280;37162;41.724;13.346;2023-02-14T08:22:32;98215.44;;;16.04;50.31
51123;BME280;37162;41.724;13.346;2023-02-14T08:24:57;98227.88;;;16.12;50.14
51123;BME280;37162;41.724;13.346;2023-02-14T08:27:23;98225.44;;;16.17;50.00
51123;BME280;37162;41.724;13.346;2023-02-14T08:29:48;98238.28;;;16.22;50.53
51123;BME280;37162;41.724;13.346;2023-02-14T08:32:13;98229.22;;;16.23;50.62
51123;BME280;37162;41.724;13.346;2023-02-14T08:34:40;98230.50;;;16.27;50.28
51123;BME280;37162;41.724;13.346;2023-02-14T08:37:05;98227.63;;;16.28;50.18
51123;BME280;37162;41.724;13.346;2023-02-14T08:39:31;98232.59;;;16.31;50.42
51123;BME280;37162;41.724;13.346;2023-02-14T08:41:57;98231.41;;;16.34;50.24
51123;BME280;37162;41.724;13.346;2023-02-14T08:44:22;98213.19;;;16.29;50.54
51123;BME280;37162;41.724;13.346;2023-02-14T08:46:48;98226.66;;;16.36;50.40
51123;BME280;37162;41.724;13.346;2023-02-14T08:49:13;98227.72;;;16.42;50.47
51123;BME280;37162;41.724;13.346;2023-02-14T08:51:39;98224.66;;;16.45;50.44
51123;BME280;37162;41.724;13.346;2023-02-14T08:54:04;98234.81;;;16.49;50.57
51123;BME280;37162;41.724;13.346;2023-02-14T08:56:30;98232.59;;;16.53;50.39
51123;BME280;37162;41.724;13.346;2023-02-14T08:58:55;98240.44;;;16.54;50.43
51123;BME280;37162;41.724;13.346;2023-02-14T09:01:21;98237.53;;;16.56;50.42
51123;BME280;37162;41.724;13.346;2023-02-14T09:03:46;98244.19;;;16.60;50.36
51123;BME280;37162;41.724;13.346;2023-02-14T09:06:14;98221.28;;;16.57;50.36
51123;BME280;37162;41.724;13.346;2023-02-14T09:08:42;98226.69;;;16.64;50.43
51123;BME280;37162;41.724;13.346;2023-02-14T09:11:19;98235.38;;;16.66;50.39
51123;BME280;37162;41.724;13.346;2023-02-14T09:13:46;98216.38;;;16.68;50.45
51123;BME280;37162;41.724;13.346;2023-02-14T09:16:15;98213.31;;;16.71;50.35
51123;BME280;37162;41.724;13.346;2023-02-14T09:18:45;98220.38;;;16.72;50.41
51123;BME280;37162;41.724;13.346;2023-02-14T09:21:14;98219.13;;;16.74;50.40
51123;BME280;37162;41.724;13.346;2023-02-14T09:23:39;98215.84;;;16.72;50.45
51123;BME280;37162;41.724;13.346;2023-02-14T09:26:07;98215.88;;;16.79;50.19
51123;BME280;37162;41.724;13.346;2023-02-14T09:28:34;98225.41;;;16.81;50.47
51123;BME280;37162;41.724;13.346;2023-02-14T09:31:08;98216.09;;;16.84;49.95
51123;BME280;37162;41.724;13.346;2023-02-14T09:33:33;98214.91;;;16.86;49.84
51123;BME280;37162;41.724;13.346;2023-02-14T09:36:18;98216.38;;;16.89;49.76
51123;BME280;37162;41.724;13.346;2023-02-14T09:38:43;98211.63;;;16.91;49.57
51123;BME280;37162;41.724;13.346;2023-02-14T09:42:06;98219.28;;;16.94;49.48
51123;BME280;37162;41.724;13.346;2023-02-14T09:46:52;98214.56;;;16.96;49.60
51123;BME280;37162;41.724;13.346;2023-02-14T09:49:29;98222.00;;;17.01;49.70
51123;BME280;37162;41.724;13.346;2023-02-14T09:51:56;98226.56;;;17.00;49.30
51123;BME280;37162;41.724;13.346;2023-02-14T09:54:27;98226.16;;;17.03;49.71
51123;BME280;37162;41.724;13.346;2023-02-14T10:05:09;98223.72;;;17.08;49.64
51123;BME280;37162;41.724;13.346;2023-02-14T10:07:55;98214.63;;;17.09;49.59
51123;BME280;37162;41.724;13.346;2023-02-14T10:10:37;98217.94;;;17.11;49.88
51123;BME280;37162;41.724;13.346;2023-02-14T10:16:07;98220.63;;;17.11;49.70
51123;BME280;37162;41.724;13.346;2023-02-14T10:19:03;98222.31;;;17.13;50.03
51123;BME280;37162;41.724;13.346;2023-02-14T10:21:35;98210.91;;;17.10;50.02
51123;BME280;37162;41.724;13.346;2023-02-14T10:26:38;98208.88;;;17.13;50.15
51123;BME280;37162;41.724;13.346;2023-02-14T10:29:13;98206.81;;;17.15;50.22
51123;BME280;37162;41.724;13.346;2023-02-14T10:31:48;98196.88;;;17.15;50.19
51123;BME280;37162;41.724;13.346;2023-02-14T10:46:00;98176.91;;;17.24;50.28
51123;BME280;37162;41.724;13.346;2023-02-14T10:54:20;98167.22;;;17.30;50.49
51123;BME280;37162;41.724;13.346;2023-02-14T10:56:55;98153.56;;;17.25;50.65
51123;BME280;37162;41.724;13.346;2023-02-14T10:59:26;98163.09;;;17.34;50.54
51123;BME280;37162;41.724;13.346;2023-02-14T11:01:55;98152.78;;;17.37;50.57
51123;BME280;37162;41.724;13.346;2023-02-14T11:04:24;98144.50;;;17.32;50.65
51123;BME280;37162;41.724;13.346;2023-02-14T11:06:50;98147.41;;;17.37;50.18
51123;BME280;37162;41.724;13.346;2023-02-14T11:09:17;98141.22;;;17.44;50.27
51123;BME280;37162;41.724;13.346;2023-02-14T11:11:47;98144.53;;;17.46;50.39
51123;BME280;37162;41.724;13.346;2023-02-14T11:14:24;98137.94;;;17.48;49.93
51123;BME280;37162;41.724;13.346;2023-02-14T11:16:50;98123.88;;;17.46;50.20
51123;BME280;37162;41.724;13.346;2023-02-14T11:21:49;98120.16;;;17.54;50.00
51123;BME280;37162;41.724;13.346;2023-02-14T11:24:32;98123.66;;;17.54;49.83
51123;BME280;37162;41.724;13.346;2023-02-14T11:26:58;98115.44;;;17.56;49.96
51123;BME280;37162;41.724;13.346;2023-02-14T11:29:30;98106.53;;;17.55;49.78
51123;BME280;37162;41.724;13.346;2023-02-14T11:32:05;98113.56;;;17.56;49.69
51123;BME280;37162;41.724;13.346;2023-02-14T11:34:44;98097.00;;;17.53;49.89
51123;BME280;37162;41.724;13.346;2023-02-14T11:39:49;98100.34;;;17.61;49.58
51123;BME280;37162;41.724;13.346;2023-02-14T11:45:03;98090.00;;;17.65;49.33
51123;BME280;37162;41.724;13.346;2023-02-14T11:47:32;98090.63;;;17.67;49.43
51123;BME280;37162;41.724;13.346;2023-02-14T11:50:01;98088.75;;;17.68;49.27
51123;BME280;37162;41.724;13.346;2023-02-14T11:52:28;98081.34;;;17.70;49.03
51123;BME280;37162;41.724;13.346;2023-02-14T11:54:55;98079.47;;;17.70;49.17
51123;BME280;37162;41.724;13.346;2023-02-14T11:59:54;98066.22;;;17.69;48.08
51123;BME280;37162;41.724;13.346;2023-02-14T12:04:55;98067.06;;;17.69;49.23
51123;BME280;37162;41.724;13.346;2023-02-14T12:07:23;98064.56;;;17.68;49.02
51123;BME280;37162;41.724;13.346;2023-02-14T12:12:30;98057.56;;;17.67;49.42
51123;BME280;37162;41.724;13.346;2023-02-14T12:15:20;98053.22;;;17.66;49.54
51123;BME280;37162;41.724;13.346;2023-02-14T12:17:49;98054.88;;;17.67;49.47
51123;BME280;37162;41.724;13.346;2023-02-14T12:20:25;98047.00;;;17.65;49.44
51123;BME280;37162;41.724;13.346;2023-02-14T12:23:24;98051.56;;;17.65;49.66
51123;BME280;37162;41.724;13.346;2023-02-14T12:26:15;98044.50;;;17.63;49.55
51123;BME280;37162;41.724;13.346;2023-02-14T12:28:51;98038.31;;;17.63;49.31
51123;BME280;37162;41.724;13.346;2023-02-14T12:31:19;98000.91;;;17.42;49.41
51123;BME280;37162;41.724;13.346;2023-02-14T12:33:45;98026.97;;;17.61;49.41
51123;BME280;37162;41.724;13.346;2023-02-14T12:36:27;98022.41;;;17.61;49.15
51123;BME280;37162;41.724;13.346;2023-02-14T12:42:11;98021.59;;;17.61;49.15
51123;BME280;37162;41.724;13.346;2023-02-14T12:47:54;98005.66;;;17.53;48.60
51123;BME280;37162;41.724;13.346;2023-02-14T12:53:10;98001.53;;;17.50;48.28
51123;BME280;37162;41.724;13.346;2023-02-14T12:56:00;97995.09;;;17.45;48.36
51123;BME280;37162;41.724;13.346;2023-02-14T13:01:47;97992.44;;;17.31;48.92
51123;BME280;37162;41.724;13.346;2023-02-14T13:15:23;97964.28;;;17.01;48.83
51123;BME280;37162;41.724;13.346;2023-02-14T13:18:01;97972.53;;;16.99;49.52
51123;BME280;37162;41.724;13.346;2023-02-14T13:20:56;97973.16;;;16.95;49.86
51123;BME280;37162;41.724;13.346;2023-02-14T13:23:35;97965.69;;;16.90;50.43
51123;BME280;37162;41.724;13.346;2023-02-14T13:28:35;97955.34;;;16.80;51.06
51123;BME280;37162;41.724;13.346;2023-02-14T13:31:01;97949.56;;;16.77;51.41
51123;BME280;37162;41.724;13.346;2023-02-14T13:33:32;97947.28;;;16.74;51.56
51123;BME280;37162;41.724;13.346;2023-02-14T13:36:10;97936.94;;;16.71;51.81
51123;BME280;37162;41.724;13.346;2023-02-14T13:38:43;97939.19;;;16.67;51.82
51123;BME280;37162;41.724;13.346;2023-02-14T13:41:10;97936.88;;;16.64;52.16
51123;BME280;37162;41.724;13.346;2023-02-14T13:43:54;97931.94;;;16.61;52.45
51123;BME280;37162;41.724;13.346;2023-02-14T13:46:46;97937.72;;;16.58;53.06
51123;BME280;37162;41.724;13.346;2023-02-14T13:49:22;97915.00;;;16.54;52.83
51123;BME280;37162;41.724;13.346;2023-02-14T13:51:50;97911.25;;;16.48;52.85
51123;BME280;37162;41.724;13.346;2023-02-14T13:54:36;97915.59;;;16.49;52.91
51123;BME280;37162;41.724;13.346;2023-02-14T13:57:35;97909.78;;;16.46;52.87
51123;BME280;37162;41.724;13.346;2023-02-14T14:00:27;97896.81;;;16.43;52.59
51123;BME280;37162;41.724;13.346;2023-02-14T14:02:59;97891.63;;;16.34;52.55
51123;BME280;37162;41.724;13.346;2023-02-14T14:10:47;97893.47;;;16.34;52.82
51123;BME280;37162;41.724;13.346;2023-02-14T14:16:26;97884.38;;;16.28;52.91
51123;BME280;37162;41.724;13.346;2023-02-14T14:21:34;97874.88;;;16.26;53.18
51123;BME280;37162;41.724;13.346;2023-02-14T14:24:29;97878.59;;;16.25;53.28
51123;BME280;37162;41.724;13.346;2023-02-14T14:29:55;97875.47;;;16.21;53.43
51123;BME280;37162;41.724;13.346;2023-02-14T14:34:53;97867.22;;;16.16;53.47
51123;BME280;37162;41.724;13.346;2023-02-14T14:37:21;97869.69;;;16.18;53.53
51123;BME280;37162;41.724;13.346;2023-02-14T14:39:59;97868.84;;;16.17;53.66
51123;BME280;37162;41.724;13.346;2023-02-14T14:42:32;97858.72;;;16.13;53.88
51123;BME280;37162;41.724;13.346;2023-02-14T14:45:02;97854.19;;;16.06;53.80
51123;BME280;37162;41.724;13.346;2023-02-14T14:47:36;97863.66;;;16.09;53.77
51123;BME280;37162;41.724;13.346;2023-02-14T14:50:07;97877.94;;;16.16;54.40
51123;BME280;37162;41.724;13.346;2023-02-14T14:52:37;97869.06;;;16.16;54.48
51123;BME280;37162;41.724;13.346;2023-02-14T14:55:07;97869.88;;;16.16;54.53
51123;BME280;37162;41.724;13.346;2023-02-14T14:57:48;97882.47;;;16.16;54.68
51123;BME280;37162;41.724;13.346;2023-02-14T15:00:18;97871.75;;;16.16;54.44
51123;BME280;37162;41.724;13.346;2023-02-14T15:03:06;97874.44;;;16.16;54.35
51123;BME280;37162;41.724;13.346;2023-02-14T15:05:37;97877.94;;;16.16;54.32
51123;BME280;37162;41.724;13.346;2023-02-14T15:11:13;97882.69;;;16.14;54.48
51123;BME280;37162;41.724;13.346;2023-02-14T15:14:00;97870.50;;;16.12;54.21
51123;BME280;37162;41.724;13.346;2023-02-14T15:19:15;97884.72;;;16.12;54.28
51123;BME280;37162;41.724;13.346;2023-02-14T15:21:42;97892.75;;;16.12;54.17
51123;BME280;37162;41.724;13.346;2023-02-14T15:24:12;97881.19;;;16.05;54.36
51123;BME280;37162;41.724;13.346;2023-02-14T15:26:41;97893.59;;;16.13;54.31
51123;BME280;37162;41.724;13.346;2023-02-14T15:31:46;97898.31;;;16.10;54.57
51123;BME280;37162;41.724;13.346;2023-02-14T15:34:12;97894.63;;;16.12;54.65
51123;BME280;37162;41.724;13.346;2023-02-14T15:36:40;97896.47;;;16.11;54.45
51123;BME280;37162;41.724;13.346;2023-02-14T15:39:07;97896.69;;;16.09;54.71
51123;BME280;37162;41.724;13.346;2023-02-14T15:41:34;97891.13;;;16.11;54.54
51123;BME280;37162;41.724;13.346;2023-02-14T15:44:00;97876.44;;;16.00;54.48